Aeroporto :
LOGIN :

Iscrizione | Disclaimer

   EN    FR    IT 

 










Sommario :    VFR   VFR Marginale   IFR   IFR Intensivo   IFR Molto Intensivo
Visibilità : 
Base nubi : 
>= 8 km
>= 3000ft
5 / 8 km
1000 / 3000 ft
1500m / 5 km
500 / 1000 ft
800 / 1500m
200 / 500 ft
< 800m
< 200 ft
Simboli :   Temporali  Nebbia  Neve Forte  Precipitazioni Forti  Vento > 20 kt
SIGMETs :   Varie  Temporali  Ghiacco  Turbolenza  Onda orograficha  Ceneri Vulcaniche






- Altitudine del aeroporto : 1079 ft


ETIK - Illesheim Air Base

ULTIMO METAR :
  • 162156Z AUTO 00000KT 9999 CLR 17/11 A2987 RMK AO2 SLP104 T01680109 $

METARs OBSOLETI :
  • 162056Z AUTO 00000KT 9999 CLR 17/10 A2987 RMK AO2 SLP105 T01690103 52010 $
  • 161956Z 00000KT 9999 CLR 19/10 A2985 RMK AO2A SLP098 T01880101 $
  • 161856Z AUTO 00000KT 9999 CLR 22/11 A2984 RMK AO2 SLP094 T02150109

TAF TAF ETIK
Valido dal 16 a 14 ore il 17 a 20 ore UTC


161400Z 1614/1720 24009KT 9999 SCT060 BKN090 QNH2984INS
BECMG 1620/1621 10006KT 9999 SCT060 QNH2987INS
BECMG 1714/1715 14009KT 9999 SCT075 QNH2984INS TX28/1615Z TN14/1704Z



MetMap, La meteo Aeronautica in un colpo d'occhio ! - Copyright ORBIFLY Dicembre 2007 - Disclaimer

ORBIFLY MET'MAP TEAM :

Programmazione e sviluppo : Alexandra Zaïnal
Concezione : Baudouin d'Aumeries
Supporto tecnico e logistico : Manuel Goepfert
Aiuto : Marc-Olivier Méhu
Aiuto per la traduzione : Arnaldo La Scala




FONTI E CREDITI :

   NOAA